Time;durP1;ratioP1;P1;durP2;ratioP2;P2;SDS_P1;SDS_P2;PMS_P1;PMS_P2;Temp;Humidity;BMP_temperature;BMP_pressure;BME280_temperature;BME280_humidity;BME280_pressure;Samples;Min_cycle;Max_cycle;Signal;HPM_P1;HPM_P2
2022/11/10 00:01:48;;;;;;;1.87;0.50;;;16.00;75.20;;;;;;2259124;56;21012;-74
2022/11/10 00:04:14;;;;;;;1.95;0.60;;;16.00;75.20;;;;;;2263594;56;20989;-74
2022/11/10 00:06:41;;;;;;;1.50;0.50;;;15.90;75.10;;;;;;2339824;55;21016;-74
2022/11/10 00:09:10;;;;;;;1.80;0.62;;;15.90;75.20;;;;;;2259664;56;21012;-75
2022/11/10 00:11:36;;;;;;;1.67;0.68;;;15.90;75.20;;;;;;2260708;56;20936;-75
2022/11/10 00:17:03;;;;;;;2.03;0.60;;;15.90;75.30;;;;;;2260107;56;20984;-75
2022/11/10 00:19:32;;;;;;;1.25;0.50;;;15.90;75.10;;;;;;2311214;55;20909;-75
2022/11/10 00:22:01;;;;;;;1.75;0.68;;;15.80;74.80;;;;;;2292454;55;20985;-74
2022/11/10 00:24:27;;;;;;;1.10;0.43;;;15.80;74.90;;;;;;2261023;56;21026;-78
2022/11/10 00:26:54;;;;;;;1.77;0.60;;;15.70;74.70;;;;;;2260246;56;20982;-74
2022/11/10 00:29:21;;;;;;;2.65;0.50;;;15.70;74.60;;;;;;2260498;56;21024;-76
2022/11/10 00:31:48;;;;;;;1.40;0.50;;;15.70;74.70;;;;;;2260347;56;21333;-75
2022/11/10 00:34:17;;;;;;;1.48;0.50;;;15.70;74.80;;;;;;2344914;55;20995;-76
2022/11/10 00:36:43;;;;;;;1.02;0.40;;;15.60;74.70;;;;;;2267085;55;21812;-76
2022/11/10 00:39:10;;;;;;;1.10;0.45;;;15.60;74.90;;;;;;2260080;56;21505;-75
2022/11/10 00:41:36;;;;;;;1.00;0.50;;;15.50;74.80;;;;;;2260564;56;20952;-76
2022/11/10 00:44:03;;;;;;;0.98;0.50;;;15.60;75.00;;;;;;2312897;55;21004;-76
2022/11/10 00:46:30;;;;;;;1.42;0.50;;;15.60;75.00;;;;;;2260913;56;20937;-78
2022/11/10 00:48:56;;;;;;;1.30;0.50;;;15.50;74.90;;;;;;2260405;56;20985;-75
2022/11/10 00:51:25;;;;;;;1.12;0.50;;;15.50;75.00;;;;;;2260177;56;20936;-75
2022/11/10 00:53:51;;;;;;;2.83;0.60;;;15.50;75.10;;;;;;2403654;55;20961;-74
2022/11/10 00:56:20;;;;;;;1.87;0.60;;;15.40;75.10;;;;;;2260533;56;20996;-74
2022/11/10 00:58:46;;;;;;;3.08;0.65;;;15.40;75.20;;;;;;2316476;55;20977;-73
2022/11/10 01:01:15;;;;;;;3.33;0.70;;;15.40;75.20;;;;;;2255989;55;20961;-74
2022/11/10 01:03:41;;;;;;;2.80;0.60;;;15.40;75.30;;;;;;2269266;55;20960;-76
2022/11/10 01:06:10;;;;;;;1.75;0.73;;;15.40;75.40;;;;;;2260136;56;21864;-74
2022/11/10 01:08:37;;;;;;;1.20;0.50;;;15.40;75.30;;;;;;2263425;56;20925;-74
2022/11/10 01:11:12;;;;;;;4.30;0.60;;;15.40;75.40;;;;;;2259901;56;20936;-74
2022/11/10 01:13:40;;;;;;;1.83;0.65;;;15.40;75.50;;;;;;2260897;56;20929;-75
2022/11/10 01:16:08;;;;;;;1.40;0.50;;;15.40;75.60;;;;;;2260404;56;20929;-77
2022/11/10 01:18:34;;;;;;;1.75;0.60;;;15.40;75.60;;;;;;2304722;55;21340;-74
2022/11/10 01:21:01;;;;;;;2.65;0.60;;;15.30;75.50;;;;;;2260233;56;20948;-74
2022/11/10 01:23:27;;;;;;;3.87;0.60;;;15.40;75.60;;;;;;2260616;56;20973;-75
2022/11/10 01:26:08;;;;;;;2.53;0.73;;;15.40;75.60;;;;;;2259902;56;21032;-74
2022/11/10 01:28:35;;;;;;;1.90;0.62;;;15.30;75.20;;;;;;2260651;56;20936;-75
2022/11/10 01:31:07;;;;;;;4.87;1.23;;;15.30;75.60;;;;;;2259718;56;21932;-75
2022/11/10 01:33:33;;;;;;;2.55;1.10;;;15.30;76.20;;;;;;2488954;55;21025;-74
2022/11/10 01:36:00;;;;;;;2.60;1.05;;;15.30;75.60;;;;;;2260158;56;20985;-79
2022/11/10 01:38:27;;;;;;;2.70;0.93;;;15.30;75.60;;;;;;2258534;56;20949;-73
2022/11/10 01:40:54;;;;;;;3.15;1.00;;;15.30;75.70;;;;;;2369103;55;20901;-75
2022/11/10 01:43:20;;;;;;;1.58;0.60;;;15.30;76.40;;;;;;2260244;56;20984;-78
2022/11/10 01:46:18;;;;;;;5.40;1.05;;;15.30;75.70;;;;;;2415435;55;21085;-74
2022/11/10 01:48:56;;;;;;;2.45;0.70;;;15.30;75.40;;;;;;2290083;55;20937;-75
2022/11/10 01:52:35;;;;;;;2.25;0.70;;;15.30;75.50;;;;;;2260437;56;21923;-74
2022/11/10 01:55:05;;;;;;;1.60;0.60;;;15.30;75.40;;;;;;2488428;55;20957;-73
2022/11/10 01:57:39;;;;;;;1.33;0.60;;;15.30;75.70;;;;;;2260924;56;21028;-77
2022/11/10 02:00:07;;;;;;;2.15;0.68;;;15.30;75.60;;;;;;2295082;55;21045;-77
2022/11/10 02:02:43;;;;;;;2.25;0.73;;;15.30;75.70;;;;;;2260745;55;20981;-77
2022/11/10 02:05:09;;;;;;;2.97;0.60;;;15.30;75.60;;;;;;2286865;55;21224;-73
2022/11/10 02:07:36;;;;;;;1.98;0.57;;;15.30;75.80;;;;;;2260845;56;20954;-73
2022/11/10 02:10:02;;;;;;;3.47;0.90;;;15.30;75.80;;;;;;2260166;56;20980;-73
2022/11/10 02:12:38;;;;;;;0.98;0.45;;;15.30;75.80;;;;;;2316115;55;21054;-75
2022/11/10 02:15:07;;;;;;;3.00;0.90;;;15.30;75.90;;;;;;2299180;55;21049;-75
2022/11/10 02:17:33;;;;;;;1.62;0.40;;;15.30;75.90;;;;;;2260325;56;21719;-76
2022/11/10 02:20:03;;;;;;;2.05;0.55;;;15.30;75.90;;;;;;2259979;56;20981;-78
2022/11/10 02:22:30;;;;;;;1.67;0.60;;;15.30;76.00;;;;;;2260759;56;21040;-77
2022/11/10 02:24:57;;;;;;;3.10;0.65;;;15.30;75.90;;;;;;2260194;56;21064;-76
2022/11/10 02:27:24;;;;;;;1.70;0.60;;;15.30;76.70;;;;;;2260655;56;21020;-74
2022/11/10 02:29:52;;;;;;;1.35;0.50;;;15.30;75.90;;;;;;2260106;56;21093;-74
2022/11/10 02:32:18;;;;;;;2.45;0.60;;;15.30;75.90;;;;;;2260180;56;20968;-74
2022/11/10 02:34:45;;;;;;;1.85;0.68;;;15.40;76.00;;;;;;2260374;56;20949;-77
2022/11/10 02:37:12;;;;;;;2.83;0.77;;;15.40;76.00;;;;;;2296376;55;20941;-75
2022/11/10 02:39:38;;;;;;;2.03;0.77;;;15.30;75.80;;;;;;2489022;55;20929;-74
2022/11/10 02:42:09;;;;;;;1.27;0.55;;;15.40;75.90;;;;;;2281460;55;21072;-74
2022/11/10 02:44:38;;;;;;;2.40;0.70;;;15.40;75.90;;;;;;2260466;56;21139;-74
2022/11/10 02:47:06;;;;;;;3.95;0.95;;;15.40;75.90;;;;;;2262601;56;21463;-76
2022/11/10 02:49:33;;;;;;;3.12;0.65;;;15.40;75.90;;;;;;2260862;56;20954;-76
2022/11/10 02:52:00;;;;;;;2.40;0.75;;;15.40;75.90;;;;;;2403017;55;20996;-74
2022/11/10 02:54:26;;;;;;;1.30;0.50;;;15.40;75.90;;;;;;2260430;56;21806;-74
2022/11/10 02:56:53;;;;;;;1.98;0.70;;;15.30;75.80;;;;;;2260397;56;20941;-74
2022/11/10 02:59:23;;;;;;;3.60;0.70;;;15.40;75.90;;;;;;2488991;55;20968;-77
2022/11/10 03:01:50;;;;;;;1.83;0.60;;;15.40;75.90;;;;;;2260535;56;20948;-74
2022/11/10 03:04:16;;;;;;;3.10;0.70;;;15.40;75.90;;;;;;2458423;55;21838;-72
2022/11/10 03:06:43;;;;;;;1.30;0.50;;;15.40;75.90;;;;;;2260261;56;21009;-79
2022/11/10 03:09:09;;;;;;;1.55;0.60;;;15.40;75.70;;;;;;2260348;56;20949;-73
2022/11/10 03:11:37;;;;;;;1.55;0.60;;;15.40;75.70;;;;;;2270167;55;21001;-74
2022/11/10 03:14:03;;;;;;;1.60;0.50;;;15.40;75.60;;;;;;2259854;56;21827;-74
2022/11/10 03:16:30;;;;;;;1.20;0.52;;;15.30;75.50;;;;;;2262843;55;20973;-78
2022/11/10 03:18:56;;;;;;;1.58;0.70;;;15.40;75.60;;;;;;2368714;55;21433;-74
2022/11/10 03:21:22;;;;;;;2.42;0.55;;;15.30;75.50;;;;;;2288198;55;20999;-74
2022/11/10 03:23:49;;;;;;;1.60;0.65;;;15.30;75.50;;;;;;2260284;56;21743;-74
2022/11/10 03:26:15;;;;;;;3.42;0.98;;;15.30;75.60;;;;;;2260419;56;21409;-74
2022/11/10 03:28:42;;;;;;;2.87;1.10;;;15.30;75.60;;;;;;2340537;55;21695;-74
2022/11/10 03:31:08;;;;;;;3.15;0.95;;;15.30;75.60;;;;;;2260561;56;20905;-74
2022/11/10 03:33:35;;;;;;;1.80;0.70;;;15.30;75.70;;;;;;2265899;55;21441;-74
2022/11/10 03:36:02;;;;;;;2.70;0.80;;;15.30;75.60;;;;;;2260245;56;21052;-74
2022/11/10 03:38:28;;;;;;;1.35;0.60;;;15.30;75.60;;;;;;2260510;56;21004;-74
2022/11/10 03:40:55;;;;;;;1.42;0.50;;;15.30;75.60;;;;;;2260166;56;21433;-73
2022/11/10 03:43:51;;;;;;;1.62;0.62;;;15.30;75.50;;;;;;2260097;55;21469;-74
2022/11/10 03:46:18;;;;;;;3.05;0.50;;;15.20;75.30;;;;;;2260056;56;20937;-79
2022/11/10 03:48:44;;;;;;;1.25;0.50;;;15.30;75.40;;;;;;2260452;56;21029;-73
2022/11/10 03:51:14;;;;;;;4.40;0.70;;;15.20;75.20;;;;;;2260050;56;20928;-76
2022/11/10 03:53:41;;;;;;;2.75;0.70;;;15.20;75.20;;;;;;2260521;56;21000;-75
2022/11/10 03:56:08;;;;;;;4.20;0.60;;;15.20;75.20;;;;;;2294275;55;21096;-76
2022/11/10 03:58:35;;;;;;;3.97;1.00;;;15.20;75.30;;;;;;2260730;56;20981;-74
2022/11/10 04:01:05;;;;;;;2.47;0.80;;;15.20;75.30;;;;;;2484994;55;20905;-76
2022/11/10 04:03:31;;;;;;;1.48;0.50;;;15.10;75.20;;;;;;2445883;55;20944;-76
2022/11/10 04:09:00;;;;;;;1.33;0.55;;;15.10;75.20;;;;;;2296640;55;21265;-76
2022/11/10 04:17:00;;;;;;;1.65;0.60;;;15.10;75.10;;;;;;2260247;56;21301;-75
2022/11/10 04:19:26;;;;;;;2.28;0.80;;;15.00;75.00;;;;;;2260131;56;21061;-74
2022/11/10 04:21:52;;;;;;;1.80;0.70;;;15.00;75.00;;;;;;2260354;56;21005;-74
2022/11/10 04:24:19;;;;;;;6.68;0.57;;;15.00;75.00;;;;;;2260868;56;22003;-73
2022/11/10 04:26:47;;;;;;;4.12;0.68;;;15.00;75.00;;;;;;2261303;56;21021;-73
2022/11/10 04:29:14;;;;;;;1.25;0.50;;;15.00;75.00;;;;;;2392559;55;21598;-74
2022/11/10 04:31:41;;;;;;;1.33;0.50;;;15.00;74.90;;;;;;2261690;56;20936;-74
2022/11/10 04:34:11;;;;;;;1.85;0.70;;;14.90;74.70;;;;;;2265405;56;21066;-73
2022/11/10 04:36:39;;;;;;;1.77;0.85;;;14.90;74.70;;;;;;2261442;56;21048;-74
2022/11/10 04:39:05;;;;;;;1.48;0.62;;;14.90;74.70;;;;;;2261655;56;21056;-74
2022/11/10 04:41:31;;;;;;;2.00;0.60;;;14.90;74.70;;;;;;2261750;56;20977;-74
2022/11/10 04:43:58;;;;;;;2.70;0.70;;;14.90;74.70;;;;;;2261164;56;20960;-74
2022/11/10 04:46:38;;;;;;;1.40;0.50;;;14.80;74.60;;;;;;2262228;56;21544;-74
2022/11/10 04:49:04;;;;;;;1.25;0.50;;;14.80;74.10;;;;;;2261529;56;21461;-73
2022/11/10 04:51:33;;;;;;;2.83;0.75;;;14.80;74.40;;;;;;2261934;56;21045;-73
2022/11/10 04:54:00;;;;;;;1.00;0.40;;;14.70;74.30;;;;;;2260979;56;20983;-74
2022/11/10 04:56:27;;;;;;;2.67;0.73;;;14.70;74.20;;;;;;2261519;56;21075;-74
2022/11/10 04:58:53;;;;;;;1.83;0.60;;;14.70;74.00;;;;;;2261410;56;21370;-75
2022/11/10 05:01:21;;;;;;;1.60;0.60;;;14.60;73.90;;;;;;2261912;56;20961;-73
2022/11/10 05:03:51;;;;;;;2.28;0.80;;;14.60;73.80;;;;;;2261348;56;21044;-76
2022/11/10 05:06:18;;;;;;;3.25;0.90;;;14.50;73.80;;;;;;2262102;56;21866;-80
2022/11/10 05:08:45;;;;;;;3.60;0.90;;;14.50;73.90;;;;;;2261312;56;21807;-75
2022/11/10 05:11:11;;;;;;;1.55;0.70;;;14.50;74.00;;;;;;2264703;56;21007;-77
2022/11/10 05:13:38;;;;;;;2.05;0.70;;;14.40;74.00;;;;;;2262004;56;21025;-78
2022/11/10 05:16:08;;;;;;;1.58;0.60;;;14.40;74.00;;;;;;2489883;55;21004;-78
2022/11/10 05:18:34;;;;;;;1.48;0.65;;;14.40;74.00;;;;;;2265523;55;20933;-76
2022/11/10 05:21:01;;;;;;;2.08;0.50;;;14.30;73.80;;;;;;2347686;55;21000;-78
2022/11/10 05:23:36;;;;;;;1.85;0.60;;;14.30;73.90;;;;;;2261259;56;20940;-76
2022/11/10 05:26:38;;;;;;;3.28;0.60;;;14.20;73.80;;;;;;2363226;55;21028;-78
2022/11/10 05:29:05;;;;;;;1.80;0.62;;;14.20;73.20;;;;;;2261783;56;20908;-78
2022/11/10 05:31:32;;;;;;;2.75;0.60;;;14.10;73.80;;;;;;2261122;56;21470;-80
2022/11/10 05:34:01;;;;;;;2.83;0.80;;;14.10;73.80;;;;;;2366389;55;21004;-77
2022/11/10 05:36:27;;;;;;;3.40;0.73;;;14.10;73.90;;;;;;2262289;56;21032;-77
2022/11/10 05:38:55;;;;;;;2.90;0.80;;;14.00;73.80;;;;;;2260846;56;22040;-77
2022/11/10 05:41:21;;;;;;;1.65;0.60;;;14.00;74.00;;;;;;2261975;56;21437;-75
2022/11/10 05:43:48;;;;;;;1.83;0.65;;;14.00;74.00;;;;;;2261582;56;21888;-77
2022/11/10 05:46:14;;;;;;;1.45;0.70;;;14.00;74.20;;;;;;2260785;56;20960;-76
2022/11/10 05:48:45;;;;;;;1.62;0.60;;;13.90;74.20;;;;;;2261310;56;21461;-76
2022/11/10 05:51:11;;;;;;;4.22;0.90;;;13.90;74.20;;;;;;2261254;56;21012;-76
2022/11/10 05:53:38;;;;;;;4.55;0.70;;;13.90;74.20;;;;;;2264182;56;20980;-78
2022/11/10 05:56:05;;;;;;;12.63;4.90;;;13.90;74.30;;;;;;2316505;55;21879;-76
2022/11/10 05:58:31;;;;;;;7.35;2.75;;;13.90;74.40;;;;;;2262389;56;20975;-75
2022/11/10 06:00:58;;;;;;;4.97;2.10;;;13.80;74.30;;;;;;2420141;55;21436;-79
2022/11/10 06:03:24;;;;;;;3.67;1.20;;;13.80;74.30;;;;;;2261883;56;20992;-79
2022/11/10 06:05:52;;;;;;;3.28;1.23;;;13.80;74.30;;;;;;2264674;56;21032;-77
2022/11/10 06:08:19;;;;;;;4.43;1.37;;;13.80;74.40;;;;;;2261333;56;21052;-77
2022/11/10 06:10:46;;;;;;;2.40;0.98;;;13.80;74.90;;;;;;2261602;56;21040;-75
2022/11/10 06:13:12;;;;;;;4.70;1.35;;;13.80;74.50;;;;;;2261523;56;20989;-75
2022/11/10 06:15:41;;;;;;;3.60;2.08;;;13.70;75.20;;;;;;2261262;56;20973;-75
2022/11/10 06:18:09;;;;;;;3.53;1.67;;;13.70;74.50;;;;;;2312913;55;21479;-76
2022/11/10 06:20:36;;;;;;;3.03;1.35;;;13.70;74.50;;;;;;2490119;55;20941;-77
2022/11/10 06:23:12;;;;;;;2.42;1.10;;;13.70;74.50;;;;;;2271108;55;21521;-77
2022/11/10 06:25:39;;;;;;;3.37;1.20;;;13.70;74.20;;;;;;2267189;55;21060;-76
2022/11/10 06:28:06;;;;;;;3.70;1.15;;;13.70;74.40;;;;;;2490617;55;21028;-77
2022/11/10 06:30:35;;;;;;;7.68;2.35;;;13.70;74.40;;;;;;2319872;55;20960;-76
2022/11/10 06:33:01;;;;;;;8.85;2.92;;;13.60;74.20;;;;;;2261790;56;21032;-75
2022/11/10 06:35:28;;;;;;;6.28;2.53;;;13.60;74.20;;;;;;2261994;56;21037;-74
2022/11/10 06:39:02;;;;;;;3.55;1.60;;;13.60;74.20;;;;;;2261495;56;20944;-78
2022/11/10 06:41:29;;;;;;;3.72;1.45;;;13.60;74.10;;;;;;2388767;55;20949;-77
2022/11/10 06:43:59;;;;;;;2.90;1.37;;;13.60;74.30;;;;;;2261005;56;21783;-75
2022/11/10 06:46:26;;;;;;;4.28;1.40;;;13.50;74.20;;;;;;2266680;55;20956;-76
2022/11/10 06:48:52;;;;;;;6.25;1.85;;;13.50;74.20;;;;;;2490187;55;20993;-78
2022/11/10 06:51:18;;;;;;;11.43;5.75;;;13.50;74.30;;;;;;2261319;56;21062;-74
2022/11/10 06:53:46;;;;;;;11.40;4.75;;;13.50;74.40;;;;;;2267666;55;21003;-75
2022/11/10 06:56:12;;;;;;;7.47;3.40;;;13.50;74.50;;;;;;2262247;56;21430;-76
2022/11/10 06:58:39;;;;;;;4.72;2.67;;;13.50;74.50;;;;;;2311125;55;20945;-80
2022/11/10 07:01:05;;;;;;;3.83;2.17;;;13.40;74.20;;;;;;2261503;56;21012;-77
2022/11/10 07:03:31;;;;;;;4.35;2.05;;;13.50;74.20;;;;;;2263901;56;20957;-76
2022/11/10 07:05:58;;;;;;;3.58;1.83;;;13.40;74.00;;;;;;2260615;56;20937;-77
2022/11/10 07:08:24;;;;;;;6.20;2.15;;;13.40;74.00;;;;;;2272206;55;20968;-76
2022/11/10 07:10:52;;;;;;;5.72;2.30;;;13.30;73.80;;;;;;2261499;56;21500;-77
2022/11/10 07:13:19;;;;;;;4.85;2.08;;;13.30;73.70;;;;;;2261036;56;20928;-78
2022/11/10 07:15:46;;;;;;;3.03;1.60;;;13.30;73.80;;;;;;2260269;56;20971;-74
2022/11/10 07:18:13;;;;;;;2.60;1.50;;;13.30;73.80;;;;;;2262998;56;21044;-78
2022/11/10 07:20:40;;;;;;;2.85;1.58;;;13.20;73.70;;;;;;2265496;56;21040;-80
2022/11/10 07:23:06;;;;;;;3.28;1.73;;;13.20;73.70;;;;;;2261155;56;21521;-75
2022/11/10 07:25:34;;;;;;;3.60;1.83;;;13.20;73.70;;;;;;2291298;55;21024;-76
2022/11/10 07:28:05;;;;;;;3.10;1.45;;;13.20;73.70;;;;;;2453289;55;21088;-77
2022/11/10 07:30:32;;;;;;;2.72;1.42;;;13.10;73.50;;;;;;2371497;55;20945;-78
2022/11/10 07:33:20;;;;;;;3.80;1.70;;;13.10;73.50;;;;;;2262556;56;20965;-74
2022/11/10 07:35:51;;;;;;;2.70;1.25;;;13.10;72.90;;;;;;2308506;55;21029;-75
2022/11/10 07:38:18;;;;;;;2.90;1.50;;;13.10;73.30;;;;;;2262139;56;21051;-74
2022/11/10 07:40:45;;;;;;;3.12;1.30;;;13.10;73.50;;;;;;2399901;55;20977;-78
2022/11/10 07:43:12;;;;;;;3.00;1.00;;;13.00;73.50;;;;;;2257049;55;20956;-75
2022/11/10 07:45:38;;;;;;;2.67;1.30;;;13.00;73.50;;;;;;2317284;55;20947;-78
2022/11/10 07:48:06;;;;;;;3.30;1.25;;;12.80;73.30;;;;;;2488658;55;21009;-77
2022/11/10 07:50:35;;;;;;;3.28;1.80;;;12.90;73.50;;;;;;2488683;55;21008;-76
2022/11/10 07:53:13;;;;;;;4.07;2.40;;;12.90;73.50;;;;;;2259401;56;21546;-78
2022/11/10 07:55:41;;;;;;;5.95;3.17;;;12.90;73.50;;;;;;2258285;56;20984;-76
2022/11/10 07:58:07;;;;;;;7.22;4.35;;;12.90;73.80;;;;;;2323370;55;20985;-75
2022/11/10 08:00:34;;;;;;;6.90;4.72;;;12.80;73.90;;;;;;2280509;55;22391;-75
2022/11/10 08:03:19;;;;;;;8.40;4.75;;;12.80;74.00;;;;;;2252386;56;21060;-74
2022/11/10 08:05:45;;;;;;;14.15;7.72;;;12.80;74.20;;;;;;2293361;55;21041;-79
2022/11/10 08:08:12;;;;;;;14.00;9.73;;;12.80;74.30;;;;;;2288610;55;20948;-79
2022/11/10 08:10:39;;;;;;;15.85;10.55;;;12.80;74.50;;;;;;2307595;55;21536;-78
2022/11/10 08:13:07;;;;;;;14.98;10.10;;;12.80;74.70;;;;;;2243281;55;20977;-75
2022/11/10 08:15:34;;;;;;;14.60;10.40;;;12.90;74.90;;;;;;2383348;55;21556;-74
2022/11/10 08:18:23;;;;;;;15.52;10.10;;;12.90;75.10;;;;;;2437312;55;20945;-77
2022/11/10 08:20:49;;;;;;;11.88;8.63;;;12.90;75.20;;;;;;2282437;54;20948;-78
2022/11/10 08:23:16;;;;;;;11.43;7.22;;;12.90;75.30;;;;;;2247490;56;21567;-75
2022/11/10 08:25:43;;;;;;;10.13;6.37;;;12.90;75.50;;;;;;2339309;54;21121;-75
2022/11/10 08:28:12;;;;;;;8.38;5.68;;;13.00;75.70;;;;;;2244080;55;21048;-78
2022/11/10 08:30:39;;;;;;;8.82;5.22;;;13.00;75.70;;;;;;2251588;56;21546;-75
2022/11/10 08:33:07;;;;;;;7.57;4.45;;;13.00;75.80;;;;;;2245693;56;20973;-78
2022/11/10 08:35:37;;;;;;;6.28;3.85;;;13.10;76.00;;;;;;2307417;55;21789;-76
2022/11/10 08:38:11;;;;;;;5.87;3.50;;;13.10;76.00;;;;;;2302201;54;21099;-78
2022/11/10 08:40:37;;;;;;;5.82;3.47;;;13.10;76.10;;;;;;2369391;55;21504;-74
2022/11/10 08:43:08;;;;;;;6.47;3.22;;;13.20;76.30;;;;;;2326722;55;20960;-75
2022/11/10 08:45:34;;;;;;;5.07;3.62;;;13.20;76.40;;;;;;2291679;55;21068;-75
2022/11/10 08:48:14;;;;;;;6.60;4.55;;;13.20;76.40;;;;;;2256430;56;21391;-76
2022/11/10 08:50:40;;;;;;;10.18;5.20;;;13.30;76.60;;;;;;2378836;55;20945;-80
2022/11/10 08:53:14;;;;;;;10.00;4.62;;;13.40;76.80;;;;;;2252552;56;21190;-77
2022/11/10 08:55:41;;;;;;;6.05;3.70;;;13.40;76.80;;;;;;2285548;55;20952;-76
2022/11/10 08:58:20;;;;;;;5.25;3.62;;;13.50;77.00;;;;;;2366921;55;21771;-77
2022/11/10 09:00:46;;;;;;;6.28;3.47;;;13.50;77.00;;;;;;2483736;55;21092;-75
2022/11/10 09:03:15;;;;;;;4.65;2.72;;;13.60;77.10;;;;;;2256378;56;21048;-76
2022/11/10 09:05:43;;;;;;;3.90;2.50;;;13.60;77.20;;;;;;2316277;55;20944;-76
2022/11/10 09:08:09;;;;;;;3.92;1.90;;;13.70;77.40;;;;;;2249081;56;21084;-75
2022/11/10 09:10:37;;;;;;;4.85;2.00;;;13.70;77.50;;;;;;2260514;55;21021;-76
2022/11/10 09:13:04;;;;;;;3.25;1.52;;;13.80;77.70;;;;;;2252462;56;21009;-74
2022/11/10 09:15:30;;;;;;;4.60;1.85;;;13.80;77.80;;;;;;2285123;55;21028;-77
2022/11/10 09:18:01;;;;;;;5.30;1.42;;;13.90;77.90;;;;;;2249037;56;21249;-76
2022/11/10 09:20:27;;;;;;;2.87;1.42;;;14.00;78.20;;;;;;2419338;55;20976;-76
2022/11/10 09:22:54;;;;;;;2.90;1.20;;;14.00;78.20;;;;;;2251100;56;21111;-75
2022/11/10 09:25:21;;;;;;;2.45;1.20;;;14.10;78.40;;;;;;2251730;56;20956;-76
2022/11/10 09:27:48;;;;;;;3.17;1.10;;;14.20;78.50;;;;;;2247538;56;21332;-74
2022/11/10 09:30:14;;;;;;;2.92;1.10;;;14.30;78.60;;;;;;2322754;55;20941;-73
2022/11/10 09:32:45;;;;;;;3.60;1.50;;;14.30;78.60;;;;;;2239668;56;20984;-73
2022/11/10 09:35:12;;;;;;;3.50;1.80;;;14.40;78.80;;;;;;2243562;55;20937;-75
2022/11/10 09:37:39;;;;;;;2.58;1.20;;;14.50;79.00;;;;;;2292662;55;21104;-74
2022/11/10 09:40:06;;;;;;;2.15;1.10;;;14.60;79.20;;;;;;2238790;55;20925;-72
2022/11/10 09:42:39;;;;;;;3.78;1.30;;;14.70;79.20;;;;;;2265814;55;21009;-76
2022/11/10 09:45:23;;;;;;;4.45;1.17;;;14.80;79.00;;;;;;2464082;54;20977;-73
2022/11/10 09:50:49;;;;;;;2.70;1.35;;;14.80;78.90;;;;;;2254572;55;21000;-74
2022/11/10 09:53:21;;;;;;;2.75;1.00;;;15.00;78.20;;;;;;2285759;55;20949;-74
2022/11/10 09:55:49;;;;;;;;;;;15.10;79.10;;;;;;2272902;55;21367;-77
2022/11/10 09:58:17;;;;;;;2.67;0.88;;;15.20;78.30;;;;;;2241364;56;20568;-73
2022/11/10 10:00:51;;;;;;;2.37;1.15;;;15.20;78.80;;;;;;2244634;56;22154;-72
2022/11/10 10:03:23;;;;;;;3.20;1.30;;;15.30;78.90;;;;;;2243889;56;21179;-74
2022/11/10 10:07:10;;;;;;;3.03;1.27;;;15.30;79.20;;;;;;2357813;55;20957;-75
2022/11/10 10:10:06;;;;;;;3.22;1.25;;;15.40;78.90;;;;;;2262921;55;21089;-75
2022/11/10 10:17:42;;;;;;;3.25;1.40;;;15.50;79.50;;;;;;2251196;55;20897;-74
2022/11/10 10:20:29;;;;;;;3.28;0.93;;;15.80;78.90;;;;;;2254974;56;20985;-75
2022/11/10 10:23:27;;;;;;;2.37;1.00;;;15.80;79.60;;;;;;2259936;56;21366;-76
2022/11/10 10:26:09;;;;;;;2.37;0.93;;;15.90;79.20;;;;;;2259301;56;21614;-74
2022/11/10 10:28:37;;;;;;;2.50;1.10;;;16.00;79.80;;;;;;2259353;56;21001;-76
2022/11/10 10:31:19;;;;;;;3.53;1.50;;;16.00;79.80;;;;;;2455114;55;20936;-73
2022/11/10 10:33:46;;;;;;;3.67;1.50;;;16.10;79.70;;;;;;2259392;56;21005;-74
2022/11/10 10:36:22;;;;;;;4.60;1.90;;;16.20;80.20;;;;;;2259313;56;20953;-73
2022/11/10 10:38:56;;;;;;;3.42;1.33;;;16.20;80.20;;;;;;2259503;56;20969;-74
2022/11/10 10:41:24;;;;;;;3.10;1.08;;;16.30;80.40;;;;;;2259458;56;21447;-74
2022/11/10 10:43:52;;;;;;;3.00;0.98;;;16.40;80.50;;;;;;2263087;55;20957;-77
2022/11/10 10:46:23;;;;;;;3.80;1.00;;;16.50;80.50;;;;;;2258867;56;20945;-74
2022/11/10 10:49:29;;;;;;;2.17;0.80;;;16.60;80.50;;;;;;2487947;55;20965;-74
2022/11/10 10:52:04;;;;;;;1.95;0.90;;;16.70;79.80;;;;;;2452955;55;21087;-72
2022/11/10 10:54:32;;;;;;;4.55;0.90;;;16.70;79.80;;;;;;2310656;55;21846;-74
2022/11/10 10:57:22;;;;;;;2.17;0.77;;;16.80;79.80;;;;;;2277747;55;20949;-73
2022/11/10 10:59:49;;;;;;;1.85;0.70;;;16.90;78.60;;;;;;2263248;55;21036;-75
2022/11/10 11:02:29;;;;;;;2.42;0.65;;;16.80;79.10;;;;;;2245023;56;20960;-73
2022/11/10 11:05:13;;;;;;;2.80;0.80;;;16.90;78.70;;;;;;2241812;56;21072;-74
2022/11/10 11:07:40;;;;;;;3.30;1.20;;;17.00;78.70;;;;;;2334116;55;21407;-73
2022/11/10 11:10:27;;;;;;;2.47;0.90;;;17.00;79.20;;;;;;2243225;56;21001;-73
2022/11/10 11:12:53;;;;;;;2.42;0.70;;;17.10;78.60;;;;;;2341768;55;21478;-73
2022/11/10 11:15:29;;;;;;;1.55;0.55;;;17.10;79.00;;;;;;2228864;56;20956;-74
2022/11/10 11:17:56;;;;;;;2.37;0.80;;;17.10;78.20;;;;;;2222599;56;21025;-72
2022/11/10 11:20:41;;;;;;;2.50;0.90;;;17.20;78.60;;;;;;2286273;55;21016;-73
2022/11/10 11:24:14;;;;;;;5.22;0.80;;;17.20;77.90;;;;;;2364636;55;20929;-73
2022/11/10 11:30:19;;;;;;;2.22;0.70;;;17.20;77.50;;;;;;2260272;56;21000;-73
2022/11/10 11:33:58;;;;;;;2.05;0.90;;;17.30;77.10;;;;;;2260301;56;21265;-74
2022/11/10 11:38:01;;;;;;;2.92;1.00;;;17.30;77.50;;;;;;2328691;55;21072;-76
2022/11/10 11:47:33;;;;;;;2.45;0.70;;;17.40;76.80;;;;;;2330698;55;21257;-75
2022/11/10 11:50:59;;;;;;;2.33;0.65;;;17.40;76.70;;;;;;2261863;56;20976;-74
2022/11/10 11:54:25;;;;;;;2.03;0.90;;;17.40;76.10;;;;;;2260629;56;21517;-77
2022/11/10 11:56:52;;;;;;;2.87;0.95;;;17.40;76.80;;;;;;2253035;56;20980;-73
2022/11/10 11:59:31;;;;;;;3.87;0.90;;;17.40;77.50;;;;;;2253193;56;20972;-74
2022/11/10 12:03:06;;;;;;;4.32;1.58;;;17.40;77.00;;;;;;2248450;56;21061;-77
2022/11/10 12:05:56;;;;;;;4.28;1.62;;;17.40;77.10;;;;;;2236192;56;21372;-73
2022/11/10 12:08:57;;;;;;;7.12;1.00;;;17.40;76.60;;;;;;2236208;56;21425;-73
2022/11/10 12:11:37;;;;;;;3.10;1.10;;;17.40;76.30;;;;;;2204056;56;20985;-74
2022/11/10 12:15:28;;;;;;;3.58;1.30;;;17.40;76.90;;;;;;2198272;56;21044;-77
2022/11/10 12:18:09;;;;;;;4.28;1.15;;;17.40;76.40;;;;;;2206270;56;21465;-73
2022/11/10 12:21:16;;;;;;;5.43;1.45;;;17.40;76.80;;;;;;2211753;56;20960;-73
2022/11/10 12:23:55;;;;;;;2.75;1.10;;;17.50;76.80;;;;;;2210595;56;21494;-74
2022/11/10 12:26:37;;;;;;;4.05;0.98;;;17.50;77.20;;;;;;2216917;56;21802;-76
2022/11/10 12:30:37;;;;;;;4.12;1.15;;;17.50;77.40;;;;;;2230613;55;21156;-74
2022/11/10 12:33:40;;;;;;;4.15;1.20;;;17.50;76.50;;;;;;2245178;56;21044;-76
2022/11/10 12:36:10;;;;;;;4.00;1.25;;;17.50;76.60;;;;;;2251563;56;20984;-75
2022/11/10 12:40:46;;;;;;;5.30;1.08;;;17.60;77.80;;;;;;2253485;55;21823;-73
2022/11/10 12:43:21;;;;;;;2.30;0.82;;;17.60;76.70;;;;;;2259902;55;20988;-74
2022/11/10 12:45:53;;;;;;;3.60;1.10;;;17.60;77.90;;;;;;2257069;56;21402;-73
2022/11/10 12:48:19;;;;;;;2.78;0.98;;;17.70;77.60;;;;;;2329215;55;21684;-72
2022/11/10 12:51:07;;;;;;;4.15;1.45;;;17.70;77.90;;;;;;2299200;55;20956;-75
2022/11/10 12:53:35;;;;;;;3.00;1.23;;;17.70;77.30;;;;;;2447039;55;20968;-74
2022/11/10 12:56:21;;;;;;;3.45;1.30;;;17.70;78.10;;;;;;2239729;56;21449;-73
2022/11/10 12:58:47;;;;;;;2.45;1.00;;;17.80;77.80;;;;;;2235740;56;20952;-74
2022/11/10 13:01:16;;;;;;;3.30;1.27;;;17.80;78.00;;;;;;2236087;56;21116;-73
2022/11/10 13:03:58;;;;;;;3.87;1.20;;;17.80;77.80;;;;;;2238546;56;21440;-74
2022/11/10 13:06:34;;;;;;;3.10;1.05;;;17.90;76.90;;;;;;2242918;56;21013;-73
2022/11/10 13:09:00;;;;;;;5.72;1.37;;;17.90;77.00;;;;;;2300667;55;20949;-73
2022/11/10 13:11:34;;;;;;;4.70;0.90;;;17.90;77.30;;;;;;2247008;56;20969;-74
2022/11/10 13:14:17;;;;;;;4.40;1.30;;;17.90;76.90;;;;;;2248012;56;21561;-76
2022/11/10 13:16:48;;;;;;;3.00;1.30;;;17.90;77.00;;;;;;2250580;56;21010;-74
2022/11/10 13:21:07;;;;;;;4.60;1.20;;;18.00;77.10;;;;;;2257421;56;21574;-75
2022/11/10 13:24:38;;;;;;;3.05;0.95;;;18.00;75.70;;;;;;2308290;55;21014;-79
2022/11/10 13:27:49;;;;;;;3.62;0.93;;;18.00;75.70;;;;;;2255038;56;22572;-73
2022/11/10 13:30:44;;;;;;;4.78;1.05;;;18.00;75.90;;;;;;2477563;55;21743;-73
2022/11/10 13:35:22;;;;;;;2.58;1.17;;;18.00;76.40;;;;;;2244389;56;21514;-75
2022/11/10 13:37:49;;;;;;;5.40;1.23;;;18.00;75.80;;;;;;2244333;56;20985;-74
2022/11/10 13:40:29;;;;;;;4.18;1.40;;;18.00;77.10;;;;;;2241194;56;21060;-77
2022/11/10 13:43:47;;;;;;;2.75;1.52;;;18.00;76.20;;;;;;2361927;55;21462;-77
2022/11/10 13:46:14;;;;;;;4.03;1.77;;;18.00;75.50;;;;;;2208821;55;21606;-73
2022/11/10 13:55:46;;;;;;;3.47;1.33;;;18.00;76.80;;;;;;2226511;55;22408;-73
2022/11/10 13:58:26;;;;;;;2.37;0.90;;;18.00;75.50;;;;;;2383619;55;20937;-72
2022/11/10 14:01:22;;;;;;;3.22;1.25;;;18.10;76.10;;;;;;2289076;55;21016;-74